Pitman, Pennsylvania
Current Conditions -  °F | °C
As of 8:58 AM on Sunday 25 Jan 2015 (Local Time) from KMUI Reporting Station
Overcast Overcast  
Wind Chill: 31°   Ceiling: 3600
Heat Index: 37°   Visibility: 10mi
Dew Point: 29°   Wind: 9mph
Humidity: 73%   Direction: 230°SW
Pressure: 29.76"   Gusts: NA
Location:  40.71°N, 76.52°W
Report Text: KMUI 251358Z AUTO 23008KT 10SM OVC036 03/M02 A2976 RMK AO2 SLP085 T00291016
Loading
Personal Weather Stations






























Interactive Weather Map New forecast layout! Learn more

10-Day Weather Forecast

Advertisements
Track Severe Weather on mobile